Time;durP1;ratioP1;P1;durP2;ratioP2;P2;SDS_P1;SDS_P2;PMS_P1;PMS_P2;Temp;Humidity;BMP_temperature;BMP_pressure;BME280_temperature;BME280_humidity;BME280_pressure;Samples;Min_cycle;Max_cycle;Signal;HPM_P1;HPM_P2
2021/04/28 00:02:22;;;;;;;;;;;;;;;;;;5038631;28;19938;-79
2021/04/28 00:04:47;;;;;;;;;;;;;;;;;;5050808;28;19923;-80
2021/04/28 00:07:13;;;;;;;;;;;;;;;;;;5051381;28;19917;-80
2021/04/28 00:09:38;;;;;;;;;;;;;;;;;;5071227;28;19942;-79
2021/04/28 00:12:03;;;;;;;;;;;;;;;;;;5049197;28;19923;-79
2021/04/28 00:14:29;;;;;;;;;;;;;;;;;;5069443;28;19916;-79
2021/04/28 00:16:54;;;;;;;;;;;;;;;;;;5072565;28;19920;-79
2021/04/28 00:19:20;;;;;;;;;;;;;;;;;;5053523;28;20393;-79
2021/04/28 00:21:45;;;;;;;;;;;;;;;;;;5050797;28;20011;-79
2021/04/28 00:24:11;;;;;;;;;;;;;;;;;;5062434;28;19991;-80
2021/04/28 00:26:36;;;;;;;;;;;;;;;;;;5068671;28;20019;-80
2021/04/28 00:29:02;;;;;;;;;;;;;;;;;;5054388;28;20418;-80
2021/04/28 00:31:27;;;;;;;;;;;;;;;;;;5054344;28;19921;-80
2021/04/28 00:33:52;;;;;;;;;;;;;;;;;;5021650;28;19916;-80
2021/04/28 00:36:18;;;;;;;;;;;;;;;;;;5041931;28;19913;-79
2021/04/28 00:38:43;;;;;;;;;;;;;;;;;;5036988;28;19924;-79
2021/04/28 00:41:09;;;;;;;;;;;;;;;;;;5037294;28;19912;-80
2021/04/28 00:43:35;;;;;;;;;;;;;;;;;;5058574;28;20033;-79
2021/04/28 00:46:00;;;;;;;;;;;;;;;;;;5044908;28;19969;-79
2021/04/28 00:48:26;;;;;;;;;;;;;;;;;;5037077;28;20344;-79
2021/04/28 00:50:51;;;;;;;;;;;;;;;;;;5024208;28;20022;-80
2021/04/28 00:53:17;;;;;;;;;;;;;;;;;;5053711;28;19963;-79
2021/04/28 00:55:43;;;;;;;;;;;;;;;;;;5039385;28;19928;-80
2021/04/28 00:58:08;;;;;;;;;;;;;;;;;;5037866;28;19973;-81
2021/04/28 01:00:35;;;;;;;;;;;;;;;;;;5020987;28;20214;-79
2021/04/28 01:03:00;;;;;;;;;;;;;;;;;;5030408;28;20443;-80
2021/04/28 01:05:26;;;;;;;;;;;;;;;;;;5054245;28;19922;-79
2021/04/28 01:07:51;;;;;;;;;;;;;;;;;;5066302;28;20280;-80
2021/04/28 01:10:23;;;;;;;;;;;;;;;;;;5073658;28;19912;-79
2021/04/28 01:12:49;;;;;;;;;;;;;;;;;;5045000;28;20377;-79
2021/04/28 01:15:16;;;;;;;;;;;;;;;;;;5023212;28;19937;-79
2021/04/28 01:17:41;;;;;;;;;;;;;;;;;;5056739;28;20553;-80
2021/04/28 01:20:07;;;;;;;;;;;;;;;;;;5073884;28;20018;-79
2021/04/28 01:22:36;;;;;;;;;;;;;;;;;;5060990;28;19915;-79
2021/04/28 01:25:02;;;;;;;;;;;;;;;;;;5077566;28;19967;-80
2021/04/28 01:27:27;;;;;;;;;;;;;;;;;;5057770;28;19955;-79
2021/04/28 01:29:53;;;;;;;;;;;;;;;;;;5043369;28;19916;-79
2021/04/28 01:32:19;;;;;;;;;;;;;;;;;;5044286;28;19919;-80
2021/04/28 01:34:44;;;;;;;;;;;;;;;;;;5058852;28;19923;-79
2021/04/28 01:37:10;;;;;;;;;;;;;;;;;;5025516;28;19920;-80
2021/04/28 01:39:36;;;;;;;;;;;;;;;;;;5040207;28;20015;-80
2021/04/28 01:42:01;;;;;;;;;;;;;;;;;;5060511;28;19924;-80
2021/04/28 01:44:26;;;;;;;;;;;;;;;;;;5077553;28;19916;-79
2021/04/28 01:46:52;;;;;;;;;;;;;;;;;;5075690;28;19916;-79
2021/04/28 01:49:17;;;;;;;;;;;;;;;;;;5060957;28;19923;-80
2021/04/28 01:51:43;;;;;;;;;;;;;;;;;;5043888;28;20457;-80
2021/04/28 01:54:13;;;;;;;;;;;;;;;;;;5056781;28;19917;-79
2021/04/28 01:56:38;;;;;;;;;;;;;;;;;;5042024;28;19916;-79
2021/04/28 01:59:03;;;;;;;;;;;;;;;;;;5057094;28;20297;-79
2021/04/28 02:01:29;;;;;;;;;;;;;;;;;;5023988;28;19936;-79
2021/04/28 02:03:54;;;;;;;;;;;;;;;;;;5040830;28;19970;-79
2021/04/28 02:06:19;;;;;;;;;;;;;;;;;;5041375;28;19921;-79
2021/04/28 02:08:45;;;;;;;;;;;;;;;;;;5056495;28;20277;-79
2021/04/28 02:11:10;;;;;;;;;;;;;;;;;;5040404;28;20007;-80
2021/04/28 02:13:36;;;;;;;;;;;;;;;;;;5036324;28;20378;-79
2021/04/28 02:16:02;;;;;;;;;;;;;;;;;;5045493;28;20011;-79
2021/04/28 02:18:27;;;;;;;;;;;;;;;;;;5023943;28;21319;-79
2021/04/28 02:20:53;;;;;;;;;;;;;;;;;;5039837;28;20255;-79
2021/04/28 02:23:18;;;;;;;;;;;;;;;;;;5046864;28;19916;-79
2021/04/28 02:25:43;;;;;;;;;;;;;;;;;;5056021;28;19923;-80
2021/04/28 02:28:09;;;;;;;;;;;;;;;;;;5039869;28;20058;-80
2021/04/28 02:30:34;;;;;;;;;;;;;;;;;;5056613;28;19986;-80
2021/04/28 02:32:59;;;;;;;;;;;;;;;;;;5023691;28;20005;-80
2021/04/28 02:35:25;;;;;;;;;;;;;;;;;;5039983;28;19920;-80
2021/04/28 02:38:13;;;;;;;;;;;;;;;;;;5031688;28;19934;-80
2021/04/28 02:40:39;;;;;;;;;;;;;;;;;;5050582;28;19916;-80
2021/04/28 02:43:04;;;;;;;;;;;;;;;;;;5060445;28;20289;-79
2021/04/28 02:45:29;;;;;;;;;;;;;;;;;;5050105;28;19912;-79
2021/04/28 02:47:55;;;;;;;;;;;;;;;;;;5056171;28;19924;-79
2021/04/28 02:50:21;;;;;;;;;;;;;;;;;;5056347;28;19917;-79
2021/04/28 02:52:46;;;;;;;;;;;;;;;;;;5055624;28;19920;-79
2021/04/28 02:55:12;;;;;;;;;;;;;;;;;;5039229;28;19981;-79
2021/04/28 02:57:39;;;;;;;;;;;;;;;;;;5032434;28;20301;-79
2021/04/28 03:00:05;;;;;;;;;;;;;;;;;;5024165;28;19913;-79
2021/04/28 03:02:30;;;;;;;;;;;;;;;;;;5039162;28;19991;-80
2021/04/28 03:04:59;;;;;;;;;;;;;;;;;;5023582;28;19913;-79
2021/04/28 03:07:24;;;;;;;;;;;;;;;;;;5038739;28;19931;-79
2021/04/28 03:09:49;;;;;;;;;;;;;;;;;;5055809;28;19916;-79
2021/04/28 03:12:15;;;;;;;;;;;;;;;;;;5053556;28;19927;-79
2021/04/28 03:14:40;;;;;;;;;;;;;;;;;;5075152;28;19923;-79
2021/04/28 03:17:06;;;;;;;;;;;;;;;;;;5073772;28;20332;-79
2021/04/28 03:19:31;;;;;;;;;;;;;;;;;;5075757;28;19931;-79
2021/04/28 03:21:56;;;;;;;;;;;;;;;;;;5037729;28;20381;-81
2021/04/28 03:24:24;;;;;;;;;;;;;;;;;;5043835;28;19916;-79
2021/04/28 03:26:53;;;;;;;;;;;;;;;;;;5040327;28;20386;-79
2021/04/28 03:29:18;;;;;;;;;;;;;;;;;;5056194;28;19912;-79
2021/04/28 03:31:44;;;;;;;;;;;;;;;;;;5057114;28;19916;-79
2021/04/28 03:34:09;;;;;;;;;;;;;;;;;;5023568;28;19916;-79
2021/04/28 03:36:34;;;;;;;;;;;;;;;;;;5054136;28;19993;-79
2021/04/28 03:39:00;;;;;;;;;;;;;;;;;;5053009;28;20015;-79
2021/04/28 03:41:27;;;;;;;;;;;;;;;;;;5041754;28;19924;-79
2021/04/28 03:43:52;;;;;;;;;;;;;;;;;;5038868;28;20290;-79
2021/04/28 03:46:17;;;;;;;;;;;;;;;;;;5072321;28;19916;-79
2021/04/28 03:48:42;;;;;;;;;;;;;;;;;;5074750;28;20007;-79
2021/04/28 03:51:08;;;;;;;;;;;;;;;;;;5057865;28;20542;-80
2021/04/28 03:53:33;;;;;;;;;;;;;;;;;;5074778;28;19923;-80
2021/04/28 03:55:58;;;;;;;;;;;;;;;;;;5038360;28;19916;-80
2021/04/28 03:58:24;;;;;;;;;;;;;;;;;;5034890;28;19916;-79
2021/04/28 04:00:49;;;;;;;;;;;;;;;;;;5071485;28;19913;-80
2021/04/28 04:03:14;;;;;;;;;;;;;;;;;;5055131;28;20011;-80
2021/04/28 04:05:39;;;;;;;;;;;;;;;;;;5054565;28;20271;-79
2021/04/28 04:08:05;;;;;;;;;;;;;;;;;;5058763;28;19920;-79
2021/04/28 04:10:30;;;;;;;;;;;;;;;;;;5037648;28;20650;-79
2021/04/28 04:12:55;;;;;;;;;;;;;;;;;;5021381;28;19936;-79
2021/04/28 04:15:21;;;;;;;;;;;;;;;;;;5038064;28;20430;-79
2021/04/28 04:17:46;;;;;;;;;;;;;;;;;;5047976;28;19916;-79
2021/04/28 04:20:12;;;;;;;;;;;;;;;;;;5054756;28;19920;-79
2021/04/28 04:22:37;;;;;;;;;;;;;;;;;;5038017;28;19912;-79
2021/04/28 04:25:03;;;;;;;;;;;;;;;;;;5037692;28;19920;-80
2021/04/28 04:27:29;;;;;;;;;;;;;;;;;;5065160;28;19920;-80
2021/04/28 04:29:54;;;;;;;;;;;;;;;;;;5037762;28;19912;-79
2021/04/28 04:32:19;;;;;;;;;;;;;;;;;;5038020;28;19920;-79
2021/04/28 04:34:45;;;;;;;;;;;;;;;;;;5029042;28;19927;-79
2021/04/28 04:37:10;;;;;;;;;;;;;;;;;;5057509;28;19912;-79
2021/04/28 04:39:35;;;;;;;;;;;;;;;;;;5057447;28;20013;-80
2021/04/28 04:42:01;;;;;;;;;;;;;;;;;;5039164;28;19916;-79
2021/04/28 04:44:26;;;;;;;;;;;;;;;;;;5057500;28;19935;-80
2021/04/28 04:46:51;;;;;;;;;;;;;;;;;;5040516;28;20018;-79
2021/04/28 04:49:17;;;;;;;;;;;;;;;;;;5072171;28;19927;-80
2021/04/28 04:51:42;;;;;;;;;;;;;;;;;;5057305;28;20057;-79
2021/04/28 04:54:07;;;;;;;;;;;;;;;;;;5057313;28;19922;-80
2021/04/28 04:56:32;;;;;;;;;;;;;;;;;;5054245;28;19923;-80
2021/04/28 04:58:58;;;;;;;;;;;;;;;;;;5056798;28;19912;-80
2021/04/28 05:01:23;;;;;;;;;;;;;;;;;;5074577;28;19912;-80
2021/04/28 05:03:52;;;;;;;;;;;;;;;;;;5068606;28;19918;-80
2021/04/28 05:06:17;;;;;;;;;;;;;;;;;;5057718;28;19912;-82
2021/04/28 05:08:43;;;;;;;;;;;;;;;;;;5062130;28;20366;-80
2021/04/28 05:11:08;;;;;;;;;;;;;;;;;;5057083;28;19920;-81
2021/04/28 05:13:33;;;;;;;;;;;;;;;;;;5074249;28;19955;-78
2021/04/28 05:15:59;;;;;;;;;;;;;;;;;;5073071;28;19943;-79
2021/04/28 05:18:24;;;;;;;;;;;;;;;;;;5054822;28;19928;-79
2021/04/28 05:20:49;;;;;;;;;;;;;;;;;;5033097;28;20399;-78
2021/04/28 05:23:14;;;;;;;;;;;;;;;;;;5073277;28;19954;-79
2021/04/28 05:25:40;;;;;;;;;;;;;;;;;;5057022;28;19919;-80
2021/04/28 05:28:05;;;;;;;;;;;;;;;;;;5072856;28;19928;-78
2021/04/28 05:30:30;;;;;;;;;;;;;;;;;;5057711;28;19978;-78
2021/04/28 05:32:56;;;;;;;;;;;;;;;;;;5057082;28;20270;-77
2021/04/28 05:35:21;;;;;;;;;;;;;;;;;;5071466;28;19916;-78
2021/04/28 05:37:46;;;;;;;;;;;;;;;;;;5068965;28;19916;-77
2021/04/28 05:40:12;;;;;;;;;;;;;;;;;;5041868;28;19952;-76
2021/04/28 05:42:37;;;;;;;;;;;;;;;;;;5037208;28;19913;-77
2021/04/28 05:45:06;;;;;;;;;;;;;;;;;;5058695;28;20386;-76
2021/04/28 05:47:31;;;;;;;;;;;;;;;;;;5056283;28;20412;-76
2021/04/28 05:49:57;;;;;;;;;;;;;;;;;;5077686;28;19920;-76
2021/04/28 05:52:22;;;;;;;;;;;;;;;;;;5053523;28;20321;-76
2021/04/28 05:54:47;;;;;;;;;;;;;;;;;;5036719;28;20361;-76
2021/04/28 05:57:14;;;;;;;;;;;;;;;;;;5053249;28;19913;-76
2021/04/28 05:59:40;;;;;;;;;;;;;;;;;;5044195;28;20023;-77
2021/04/28 06:02:05;;;;;;;;;;;;;;;;;;5073254;28;20342;-76
2021/04/28 06:04:30;;;;;;;;;;;;;;;;;;5078975;28;19923;-77
2021/04/28 06:06:55;;;;;;;;;;;;;;;;;;5103344;28;19916;-77
2021/04/28 06:09:21;;;;;;;;;;;;;;;;;;5076759;28;20324;-76
2021/04/28 06:11:46;;;;;;;;;;;;;;;;;;5086146;28;19920;-76
2021/04/28 06:14:11;;;;;;;;;;;;;;;;;;5065257;28;20254;-76
2021/04/28 06:16:36;;;;;;;;;;;;;;;;;;5080456;28;19958;-76
2021/04/28 06:19:02;;;;;;;;;;;;;;;;;;5080154;28;19922;-76
2021/04/28 06:21:29;;;;;;;;;;;;;;;;;;5107487;28;19912;-75
2021/04/28 06:23:55;;;;;;;;;;;;;;;;;;5043897;28;20286;-76
2021/04/28 06:26:20;;;;;;;;;;;;;;;;;;5076409;28;19912;-76
2021/04/28 06:28:45;;;;;;;;;;;;;;;;;;5057219;28;19956;-76
2021/04/28 06:31:11;;;;;;;;;;;;;;;;;;5076761;28;20370;-76
2021/04/28 06:33:36;;;;;;;;;;;;;;;;;;5059801;28;20370;-77
2021/04/28 06:36:02;;;;;;;;;;;;;;;;;;5055289;28;19931;-76
2021/04/28 06:38:27;;;;;;;;;;;;;;;;;;5020901;28;19917;-75
2021/04/28 06:40:52;;;;;;;;;;;;;;;;;;5045730;28;19965;-76
2021/04/28 06:43:17;;;;;;;;;;;;;;;;;;5058323;28;19951;-76
2021/04/28 06:45:43;;;;;;;;;;;;;;;;;;5065522;28;19912;-75
2021/04/28 06:48:11;;;;;;;;;;;;;;;;;;5073373;28;19959;-76
2021/04/28 06:50:36;;;;;;;;;;;;;;;;;;5089956;28;20353;-76
2021/04/28 06:53:02;;;;;;;;;;;;;;;;;;5072832;28;19916;-76
2021/04/28 06:55:27;;;;;;;;;;;;;;;;;;5072780;28;19916;-76
2021/04/28 06:57:55;;;;;;;;;;;;;;;;;;5075631;28;19912;-76
2021/04/28 07:00:20;;;;;;;;;;;;;;;;;;5076180;28;19912;-75
2021/04/28 07:02:45;;;;;;;;;;;;;;;;;;5076074;28;19919;-75
2021/04/28 07:05:11;;;;;;;;;;;;;;;;;;5075893;28;19916;-75
2021/04/28 07:07:36;;;;;;;;;;;;;;;;;;5093801;28;19916;-75
2021/04/28 07:10:02;;;;;;;;;;;;;;;;;;5075622;28;19912;-75
2021/04/28 07:12:27;;;;;;;;;;;;;;;;;;5058405;28;19912;-75
2021/04/28 07:14:52;;;;;;;;;;;;;;;;;;5059059;28;19912;-75
2021/04/28 07:17:17;;;;;;;;;;;;;;;;;;5059001;28;19916;-76
2021/04/28 07:19:43;;;;;;;;;;;;;;;;;;5075445;28;19920;-76
2021/04/28 07:22:08;;;;;;;;;;;;;;;;;;5066045;28;19916;-76
2021/04/28 07:24:34;;;;;;;;;;;;;;;;;;5060146;28;19922;-76
2021/04/28 07:26:59;;;;;;;;;;;;;;;;;;5093870;28;19912;-76
2021/04/28 07:29:24;;;;;;;;;;;;;;;;;;5095728;28;20015;-78
2021/04/28 07:31:50;;;;;;;;;;;;;;;;;;5095658;28;19957;-79
2021/04/28 07:34:15;;;;;;;;;;;;;;;;;;5095819;28;19915;-77
2021/04/28 07:36:41;;;;;;;;;;;;;;;;;;5096117;28;19943;-78
2021/04/28 07:39:07;;;;;;;;;;;;;;;;;;5113484;28;19916;-78
2021/04/28 07:41:32;;;;;;;;;;;;;;;;;;5077828;28;19912;-78
2021/04/28 07:43:58;;;;;;;;;;;;;;;;;;5095723;28;20366;-78
2021/04/28 07:46:23;;;;;;;;;;;;;;;;;;5042186;28;19923;-78
2021/04/28 07:48:48;;;;;;;;;;;;;;;;;;5033460;28;19964;-77
2021/04/28 07:51:14;;;;;;;;;;;;;;;;;;5052360;28;19916;-78
2021/04/28 07:53:39;;;;;;;;;;;;;;;;;;5074682;28;20312;-78
2021/04/28 07:56:04;;;;;;;;;;;;;;;;;;5052238;28;19917;-78
2021/04/28 07:58:29;;;;;;;;;;;;;;;;;;5038479;28;19912;-78
2021/04/28 08:00:55;;;;;;;;;;;;;;;;;;5054872;28;19924;-77
2021/04/28 08:03:20;;;;;;;;;;;;;;;;;;5037613;28;19912;-78
2021/04/28 08:05:45;;;;;;;;;;;;;;;;;;5056063;28;19916;-78
2021/04/28 08:08:10;;;;;;;;;;;;;;;;;;5066856;28;19921;-77
2021/04/28 08:10:36;;;;;;;;;;;;;;;;;;5041373;28;19920;-78
2021/04/28 08:13:02;;;;;;;;;;;;;;;;;;5037589;28;19917;-78
2021/04/28 08:15:27;;;;;;;;;;;;;;;;;;5054880;28;20191;-77
2021/04/28 08:17:52;;;;;;;;;;;;;;;;;;5054480;28;19921;-78
2021/04/28 08:20:17;;;;;;;;;;;;;;;;;;5054767;28;19916;-77
2021/04/28 08:22:43;;;;;;;;;;;;;;;;;;5071182;28;20405;-78
2021/04/28 08:25:11;;;;;;;;;;;;;;;;;;5057177;28;19912;-78
2021/04/28 08:27:36;;;;;;;;;;;;;;;;;;5037028;28;19978;-77
2021/04/28 08:30:03;;;;;;;;;;;;;;;;;;5058310;28;20286;-77
2021/04/28 08:32:28;;;;;;;;;;;;;;;;;;5044563;28;19999;-77
2021/04/28 08:34:54;;;;;;;;;;;;;;;;;;5071939;28;19959;-77
2021/04/28 08:37:20;;;;;;;;;;;;;;;;;;5070742;28;19916;-77
2021/04/28 08:39:45;;;;;;;;;;;;;;;;;;5048809;28;20469;-77
2021/04/28 08:42:10;;;;;;;;;;;;;;;;;;5053547;28;20418;-78
2021/04/28 08:44:36;;;;;;;;;;;;;;;;;;5055648;28;19920;-77
2021/04/28 08:47:02;;;;;;;;;;;;;;;;;;5054099;28;19921;-78
2021/04/28 08:49:27;;;;;;;;;;;;;;;;;;5054105;28;19946;-77
2021/04/28 08:51:52;;;;;;;;;;;;;;;;;;5053766;28;19920;-77
2021/04/28 08:54:18;;;;;;;;;;;;;;;;;;5037084;28;20342;-77
2021/04/28 08:56:48;;;;;;;;;;;;;;;;;;5037237;28;19913;-77
2021/04/28 08:59:14;;;;;;;;;;;;;;;;;;5053945;28;19912;-78
2021/04/28 09:01:41;;;;;;;;;;;;;;;;;;5054854;28;19961;-78
2021/04/28 09:04:14;;;;;;;;;;;;;;;;;;5047679;28;19920;-77
2021/04/28 09:06:39;;;;;;;;;;;;;;;;;;5073762;28;20915;-78
2021/04/28 09:09:07;;;;;;;;;;;;;;;;;;5073168;28;19916;-77
2021/04/28 09:11:43;;;;;;;;;;;;;;;;;;5092143;28;19912;-77
2021/04/28 09:14:11;;;;;;;;;;;;;;;;;;5057316;28;20425;-77
2021/04/28 09:16:37;;;;;;;;;;;;;;;;;;5074296;28;19928;-77
2021/04/28 09:19:03;;;;;;;;;;;;;;;;;;5073651;28;19924;-78
2021/04/28 09:21:47;;;;;;;;;;;;;;;;;;5065767;28;19922;-77
2021/04/28 09:24:18;;;;;;;;;;;;;;;;;;5082900;28;19921;-77
2021/04/28 09:26:44;;;;;;;;;;;;;;;;;;5055326;28;19912;-78
2021/04/28 09:29:09;;;;;;;;;;;;;;;;;;5056644;28;20369;-77
2021/04/28 09:31:35;;;;;;;;;;;;;;;;;;5040476;28;19924;-77
2021/04/28 09:34:00;;;;;;;;;;;;;;;;;;5053967;28;20007;-77
2021/04/28 09:36:27;;;;;;;;;;;;;;;;;;5039359;28;19982;-77
2021/04/28 09:38:52;;;;;;;;;;;;;;;;;;5057394;28;19987;-78
2021/04/28 09:41:30;;;;;;;;;;;;;;;;;;5063360;28;20012;-78
2021/04/28 09:43:55;;;;;;;;;;;;;;;;;;5038974;28;20400;-77
2021/04/28 09:46:21;;;;;;;;;;;;;;;;;;5057412;28;19963;-77
2021/04/28 09:49:02;;;;;;;;;;;;;;;;;;5040830;28;19921;-77
2021/04/28 09:51:31;;;;;;;;;;;;;;;;;;5056980;28;19923;-77
2021/04/28 09:54:10;;;;;;;;;;;;;;;;;;5058338;28;19928;-78
2021/04/28 09:56:39;;;;;;;;;;;;;;;;;;5076767;28;19912;-78
2021/04/28 09:59:04;;;;;;;;;;;;;;;;;;5077012;28;19919;-78
2021/04/28 10:01:30;;;;;;;;;;;;;;;;;;5094810;28;19913;-78
2021/04/28 10:03:56;;;;;;;;;;;;;;;;;;5077060;28;19916;-77
2021/04/28 10:06:39;;;;;;;;;;;;;;;;;;5059585;28;19916;-78
2021/04/28 10:09:06;;;;;;;;;;;;;;;;;;5076748;28;20290;-77
2021/04/28 10:11:31;;;;;;;;;;;;;;;;;;5076545;28;19955;-77
2021/04/28 10:13:57;;;;;;;;;;;;;;;;;;5076959;28;19973;-78
2021/04/28 10:16:22;;;;;;;;;;;;;;;;;;5059941;28;20393;-78
2021/04/28 10:18:47;;;;;;;;;;;;;;;;;;5076878;28;19957;-78
2021/04/28 10:21:13;;;;;;;;;;;;;;;;;;5069808;28;19924;-76
2021/04/28 10:23:38;;;;;;;;;;;;;;;;;;5056913;28;20382;-77
2021/04/28 10:26:03;;;;;;;;;;;;;;;;;;5056793;28;20414;-77
2021/04/28 10:28:29;;;;;;;;;;;;;;;;;;5072475;28;19919;-79
2021/04/28 10:30:54;;;;;;;;;;;;;;;;;;5059185;28;19919;-78
2021/04/28 10:33:19;;;;;;;;;;;;;;;;;;5041209;28;20459;-78
2021/04/28 10:35:44;;;;;;;;;;;;;;;;;;5059383;28;19912;-78
2021/04/28 10:38:10;;;;;;;;;;;;;;;;;;5059749;28;19912;-79
2021/04/28 10:40:35;;;;;;;;;;;;;;;;;;5059185;28;19920;-79
2021/04/28 10:43:07;;;;;;;;;;;;;;;;;;5076197;28;20270;-79
2021/04/28 10:45:38;;;;;;;;;;;;;;;;;;5040956;28;19943;-79
2021/04/28 10:48:11;;;;;;;;;;;;;;;;;;5056336;28;19967;-78
2021/04/28 10:50:37;;;;;;;;;;;;;;;;;;5057284;28;19931;-78
2021/04/28 10:53:18;;;;;;;;;;;;;;;;;;5064378;28;19967;-78
2021/04/28 10:55:45;;;;;;;;;;;;;;;;;;5055570;28;19923;-78
2021/04/28 10:58:23;;;;;;;;;;;;;;;;;;5039254;28;20366;-78
2021/04/28 11:00:48;;;;;;;;;;;;;;;;;;5073920;28;19923;-78
2021/04/28 11:03:26;;;;;;;;;;;;;;;;;;5075637;28;19912;-79
2021/04/28 11:05:52;;;;;;;;;;;;;;;;;;5075441;28;19923;-78
2021/04/28 11:08:17;;;;;;;;;;;;;;;;;;5074233;28;19916;-78
2021/04/28 11:10:42;;;;;;;;;;;;;;;;;;5059058;28;19938;-78
2021/04/28 11:13:07;;;;;;;;;;;;;;;;;;5059664;28;19917;-78
2021/04/28 11:15:49;;;;;;;;;;;;;;;;;;5055728;28;19966;-78
2021/04/28 11:18:31;;;;;;;;;;;;;;;;;;5038989;28;19923;-79
2021/04/28 11:21:12;;;;;;;;;;;;;;;;;;5055415;28;19921;-80
2021/04/28 11:23:38;;;;;;;;;;;;;;;;;;5055829;28;19917;-79
2021/04/28 11:26:23;;;;;;;;;;;;;;;;;;5055412;28;19962;-79
2021/04/28 11:28:49;;;;;;;;;;;;;;;;;;5061181;28;19928;-79
2021/04/28 11:31:21;;;;;;;;;;;;;;;;;;5058374;28;20396;-79
2021/04/28 11:33:46;;;;;;;;;;;;;;;;;;5041955;28;19954;-80
2021/04/28 11:36:13;;;;;;;;;;;;;;;;;;5075181;28;19951;-79
2021/04/28 11:38:40;;;;;;;;;;;;;;;;;;5041025;28;19923;-79
2021/04/28 11:41:12;;;;;;;;;;;;;;;;;;5036155;28;20436;-79
2021/04/28 11:43:41;;;;;;;;;;;;;;;;;;5062857;28;19920;-80
2021/04/28 11:46:10;;;;;;;;;;;;;;;;;;5049315;28;19921;-80
2021/04/28 11:48:36;;;;;;;;;;;;;;;;;;5055559;28;19977;-80
2021/04/28 11:51:05;;;;;;;;;;;;;;;;;;5056278;28;20293;-80
2021/04/28 11:53:31;;;;;;;;;;;;;;;;;;5038454;28;19999;-80
2021/04/28 11:55:56;;;;;;;;;;;;;;;;;;5038198;28;19995;-80
2021/04/28 11:58:22;;;;;;;;;;;;;;;;;;5055072;28;19917;-80
2021/04/28 12:00:47;;;;;;;;;;;;;;;;;;5054551;28;20286;-79
2021/04/28 12:03:13;;;;;;;;;;;;;;;;;;5021182;28;19912;-81
2021/04/28 12:05:38;;;;;;;;;;;;;;;;;;5057781;28;20278;-79
2021/04/28 12:08:03;;;;;;;;;;;;;;;;;;5058160;28;19969;-81
2021/04/28 12:10:29;;;;;;;;;;;;;;;;;;5058036;28;19919;-82
2021/04/28 12:12:54;;;;;;;;;;;;;;;;;;5040307;28;19998;-84
2021/04/28 12:15:19;;;;;;;;;;;;;;;;;;5063554;28;20354;-85
2021/04/28 12:17:45;;;;;;;;;;;;;;;;;;5074439;28;19970;-82
2021/04/28 12:20:17;;;;;;;;;;;;;;;;;;5052202;28;19928;-83
2021/04/28 12:22:42;;;;;;;;;;;;;;;;;;5037739;28;19916;-84
2021/04/28 12:25:08;;;;;;;;;;;;;;;;;;5038691;28;20051;-84
2021/04/28 12:27:34;;;;;;;;;;;;;;;;;;5045840;28;19912;-83
2021/04/28 12:30:06;;;;;;;;;;;;;;;;;;5054484;28;19912;-80
2021/04/28 12:32:32;;;;;;;;;;;;;;;;;;5087744;28;19997;-80
2021/04/28 12:35:19;;;;;;;;;;;;;;;;;;5072179;28;19990;-81
2021/04/28 12:38:01;;;;;;;;;;;;;;;;;;5021931;28;20339;-82
2021/04/28 12:40:36;;;;;;;;;;;;;;;;;;5021112;28;20359;-81
2021/04/28 12:43:02;;;;;;;;;;;;;;;;;;5026079;28;19928;-82
2021/04/28 12:45:27;;;;;;;;;;;;;;;;;;5037514;28;19916;-81
2021/04/28 12:47:52;;;;;;;;;;;;;;;;;;5054131;28;19933;-79
2021/04/28 12:50:19;;;;;;;;;;;;;;;;;;5054084;28;19916;-79
2021/04/28 12:52:44;;;;;;;;;;;;;;;;;;5025409;28;19917;-81
2021/04/28 12:55:22;;;;;;;;;;;;;;;;;;5056361;28;19950;-78
2021/04/28 12:57:55;;;;;;;;;;;;;;;;;;5074317;28;19920;-77
2021/04/28 13:00:20;;;;;;;;;;;;;;;;;;5040594;28;19919;-79
2021/04/28 13:03:01;;;;;;;;;;;;;;;;;;5057676;28;19916;-79
2021/04/28 13:05:33;;;;;;;;;;;;;;;;;;5073758;28;20021;-80
2021/04/28 13:08:14;;;;;;;;;;;;;;;;;;5063267;28;20003;-77
2021/04/28 13:10:55;;;;;;;;;;;;;;;;;;5038463;28;19912;-80
2021/04/28 13:13:30;;;;;;;;;;;;;;;;;;5024964;28;19913;-79
2021/04/28 13:15:55;;;;;;;;;;;;;;;;;;5024751;28;19923;-81
2021/04/28 13:18:20;;;;;;;;;;;;;;;;;;5024923;28;20710;-79
2021/04/28 13:20:46;;;;;;;;;;;;;;;;;;5041223;28;19932;-82
2021/04/28 13:23:11;;;;;;;;;;;;;;;;;;5044599;28;19925;-80
2021/04/28 13:25:46;;;;;;;;;;;;;;;;;;5057284;28;19920;-80
2021/04/28 13:28:30;;;;;;;;;;;;;;;;;;5081574;28;19943;-79
2021/04/28 13:31:14;;;;;;;;;;;;;;;;;;5076322;28;19923;-79
2021/04/28 13:33:39;;;;;;;;;;;;;;;;;;5041459;28;20290;-79
2021/04/28 13:36:04;;;;;;;;;;;;;;;;;;5066536;28;19912;-79
2021/04/28 13:38:29;;;;;;;;;;;;;;;;;;5063431;28;19912;-79
2021/04/28 13:40:55;;;;;;;;;;;;;;;;;;5065683;28;19920;-79
2021/04/28 13:43:20;;;;;;;;;;;;;;;;;;5060555;28;20277;-79
2021/04/28 13:45:46;;;;;;;;;;;;;;;;;;5077368;28;19916;-79
2021/04/28 13:48:12;;;;;;;;;;;;;;;;;;5059228;28;19923;-80
2021/04/28 13:50:37;;;;;;;;;;;;;;;;;;5059085;28;20354;-80
2021/04/28 13:53:03;;;;;;;;;;;;;;;;;;5080660;28;19945;-80
2021/04/28 13:55:28;;;;;;;;;;;;;;;;;;5080563;28;19916;-79
2021/04/28 13:57:54;;;;;;;;;;;;;;;;;;5097854;28;20011;-79
2021/04/28 14:00:19;;;;;;;;;;;;;;;;;;5063625;28;19961;-80
2021/04/28 14:02:45;;;;;;;;;;;;;;;;;;5080441;28;20331;-79
2021/04/28 14:05:10;;;;;;;;;;;;;;;;;;5063527;28;20006;-79
2021/04/28 14:07:36;;;;;;;;;;;;;;;;;;5063560;28;19969;-80
2021/04/28 14:10:01;;;;;;;;;;;;;;;;;;5063223;28;19952;-80
2021/04/28 14:12:26;;;;;;;;;;;;;;;;;;5068943;28;20006;-79
2021/04/28 14:14:52;;;;;;;;;;;;;;;;;;5043619;28;20368;-79
2021/04/28 14:17:17;;;;;;;;;;;;;;;;;;5056547;28;19959;-79
2021/04/28 14:19:42;;;;;;;;;;;;;;;;;;5056191;28;19924;-79
2021/04/28 14:22:07;;;;;;;;;;;;;;;;;;5055541;28;19951;-79
2021/04/28 14:24:33;;;;;;;;;;;;;;;;;;5039699;28;19988;-80
2021/04/28 14:26:58;;;;;;;;;;;;;;;;;;5059657;28;19919;-80
2021/04/28 14:29:23;;;;;;;;;;;;;;;;;;5056051;28;20002;-80
2021/04/28 14:31:48;;;;;;;;;;;;;;;;;;5054214;28;19966;-80
2021/04/28 14:34:14;;;;;;;;;;;;;;;;;;5055993;28;19916;-80
2021/04/28 14:36:42;;;;;;;;;;;;;;;;;;5073371;28;19913;-80
2021/04/28 14:39:10;;;;;;;;;;;;;;;;;;5056222;28;19923;-79
2021/04/28 14:41:36;;;;;;;;;;;;;;;;;;5055326;28;19952;-80
2021/04/28 14:44:01;;;;;;;;;;;;;;;;;;5042612;28;19990;-80
2021/04/28 14:46:26;;;;;;;;;;;;;;;;;;5056197;28;19920;-80
2021/04/28 14:48:52;;;;;;;;;;;;;;;;;;5055870;28;19925;-79
2021/04/28 14:51:17;;;;;;;;;;;;;;;;;;5056076;28;20051;-79
2021/04/28 14:53:42;;;;;;;;;;;;;;;;;;5072684;28;20406;-78
2021/04/28 14:56:08;;;;;;;;;;;;;;;;;;5039215;28;19912;-79
2021/04/28 14:58:36;;;;;;;;;;;;;;;;;;5038626;28;19938;-78
2021/04/28 15:01:01;;;;;;;;;;;;;;;;;;5056354;28;19912;-79
2021/04/28 15:03:26;;;;;;;;;;;;;;;;;;5055571;28;19966;-81
2021/04/28 15:05:51;;;;;;;;;;;;;;;;;;5039380;28;19924;-81
2021/04/28 15:08:16;;;;;;;;;;;;;;;;;;5039194;28;19916;-80
2021/04/28 15:10:42;;;;;;;;;;;;;;;;;;5038479;28;19978;-80
2021/04/28 15:13:07;;;;;;;;;;;;;;;;;;5038868;28;20377;-80
2021/04/28 15:15:32;;;;;;;;;;;;;;;;;;5038842;28;19940;-80
2021/04/28 15:17:57;;;;;;;;;;;;;;;;;;5038977;28;19923;-80
2021/04/28 15:20:23;;;;;;;;;;;;;;;;;;5034641;28;20413;-79
2021/04/28 15:22:48;;;;;;;;;;;;;;;;;;5040269;28;19970;-79
2021/04/28 15:25:13;;;;;;;;;;;;;;;;;;5055287;28;19912;-80
2021/04/28 15:27:39;;;;;;;;;;;;;;;;;;5030717;28;19912;-80
2021/04/28 15:30:05;;;;;;;;;;;;;;;;;;5058921;28;19912;-80
2021/04/28 15:32:30;;;;;;;;;;;;;;;;;;5058195;28;20082;-79
2021/04/28 15:34:55;;;;;;;;;;;;;;;;;;5044923;28;19927;-79
2021/04/28 15:37:20;;;;;;;;;;;;;;;;;;5059528;28;19966;-79
2021/04/28 15:39:45;;;;;;;;;;;;;;;;;;5038186;28;19916;-79
2021/04/28 15:42:11;;;;;;;;;;;;;;;;;;5042310;28;19916;-78
2021/04/28 15:44:36;;;;;;;;;;;;;;;;;;5058495;28;19916;-80
2021/04/28 15:47:01;;;;;;;;;;;;;;;;;;5058342;28;19920;-79
2021/04/28 15:49:27;;;;;;;;;;;;;;;;;;5075254;28;19927;-79
2021/04/28 15:51:54;;;;;;;;;;;;;;;;;;5058544;28;19939;-79
2021/04/28 15:54:19;;;;;;;;;;;;;;;;;;5074843;28;19916;-78
2021/04/28 15:56:44;;;;;;;;;;;;;;;;;;5054306;28;20470;-79
2021/04/28 15:59:10;;;;;;;;;;;;;;;;;;5045868;28;19917;-80
2021/04/28 16:01:35;;;;;;;;;;;;;;;;;;5071682;28;19916;-81
2021/04/28 16:04:00;;;;;;;;;;;;;;;;;;5037542;28;20382;-79
2021/04/28 16:06:26;;;;;;;;;;;;;;;;;;5055130;28;20007;-80
2021/04/28 16:08:51;;;;;;;;;;;;;;;;;;5049312;28;19916;-81
2021/04/28 16:11:16;;;;;;;;;;;;;;;;;;5054252;28;19917;-80
2021/04/28 16:13:42;;;;;;;;;;;;;;;;;;5032979;28;19952;-79
2021/04/28 16:16:07;;;;;;;;;;;;;;;;;;5079696;28;20362;-81
2021/04/28 16:18:32;;;;;;;;;;;;;;;;;;5042908;28;19959;-81
2021/04/28 16:20:57;;;;;;;;;;;;;;;;;;5043873;28;20014;-82
2021/04/28 16:23:23;;;;;;;;;;;;;;;;;;5056501;28;19919;-82
2021/04/28 16:25:48;;;;;;;;;;;;;;;;;;5082911;28;19916;-82
2021/04/28 16:28:13;;;;;;;;;;;;;;;;;;5060502;28;19913;-82
2021/04/28 16:30:39;;;;;;;;;;;;;;;;;;5070903;28;19912;-81
2021/04/28 16:33:04;;;;;;;;;;;;;;;;;;5070686;28;20277;-82
2021/04/28 16:35:29;;;;;;;;;;;;;;;;;;5037569;28;19913;-82
2021/04/28 16:37:55;;;;;;;;;;;;;;;;;;5040317;28;20019;-83
2021/04/28 16:40:20;;;;;;;;;;;;;;;;;;5037033;28;20005;-83
2021/04/28 16:42:45;;;;;;;;;;;;;;;;;;5037609;28;19916;-82